Spokane, Washington
Current Conditions -  °F | °C
As of 4:04 AM on Monday 26 Jan 2015 (Local Time) from KSFF Reporting Station
Haze Haze  
Wind Chill:   Ceiling: 300
Heat Index:   Visibility: 3mi
Dew Point:   Wind: 0mph
Humidity: 93%   Direction: NA
Pressure: 30.14"   Gusts: NA
Location:  47.66°N, 117.41°W
Report Text: KSFF 261204Z AUTO 00000KT 3SM BR OVC003 03/02 A3014 RMK AO2 T00280017
Loading
Personal Weather Stations






























Interactive Weather Map New forecast layout! Learn more

10-Day Weather Forecast

Advertisements
Track Severe Weather on mobile